sensor_id;sensor_type;location;lat;lon;timestamp;P1;durP1;ratioP1;P2;durP2;ratioP2
55364;SDS011;41245;45.384;20.390;2023-05-13T00:00:10;12.30;;;5.97;;
55364;SDS011;41245;45.384;20.390;2023-05-13T00:02:37;9.05;;;6.45;;
55364;SDS011;41245;45.384;20.390;2023-05-13T00:05:02;9.63;;;6.43;;
55364;SDS011;41245;45.384;20.390;2023-05-13T00:07:28;9.20;;;6.55;;
55364;SDS011;41245;45.384;20.390;2023-05-13T00:09:54;7.28;;;5.43;;
55364;SDS011;41245;45.384;20.390;2023-05-13T00:12:20;10.55;;;6.22;;
55364;SDS011;41245;45.384;20.390;2023-05-13T00:14:46;9.02;;;5.85;;
55364;SDS011;41245;45.384;20.390;2023-05-13T00:17:11;7.13;;;5.88;;
55364;SDS011;41245;45.384;20.390;2023-05-13T00:19:37;11.60;;;6.63;;
55364;SDS011;41245;45.384;20.390;2023-05-13T00:22:03;10.07;;;5.78;;
55364;SDS011;41245;45.384;20.390;2023-05-13T00:24:29;8.05;;;5.53;;
55364;SDS011;41245;45.384;20.390;2023-05-13T00:26:54;9.27;;;5.95;;
55364;SDS011;41245;45.384;20.390;2023-05-13T00:29:20;7.20;;;5.65;;
55364;SDS011;41245;45.384;20.390;2023-05-13T00:31:46;6.93;;;5.50;;
55364;SDS011;41245;45.384;20.390;2023-05-13T00:34:11;14.82;;;5.53;;
55364;SDS011;41245;45.384;20.390;2023-05-13T00:36:37;11.95;;;5.65;;
55364;SDS011;41245;45.384;20.390;2023-05-13T00:39:03;10.32;;;6.68;;
55364;SDS011;41245;45.384;20.390;2023-05-13T00:41:29;7.47;;;5.72;;
55364;SDS011;41245;45.384;20.390;2023-05-13T00:43:55;9.75;;;6.15;;
55364;SDS011;41245;45.384;20.390;2023-05-13T00:46:21;8.93;;;5.88;;
55364;SDS011;41245;45.384;20.390;2023-05-13T00:48:47;8.45;;;5.80;;
55364;SDS011;41245;45.384;20.390;2023-05-13T00:51:14;6.35;;;5.32;;
55364;SDS011;41245;45.384;20.390;2023-05-13T00:53:39;11.25;;;6.25;;
55364;SDS011;41245;45.384;20.390;2023-05-13T00:56:06;8.32;;;5.40;;
55364;SDS011;41245;45.384;20.390;2023-05-13T00:58:32;12.40;;;5.70;;
55364;SDS011;41245;45.384;20.390;2023-05-13T01:01:04;8.70;;;5.38;;
55364;SDS011;41245;45.384;20.390;2023-05-13T01:06:43;10.00;;;5.65;;
55364;SDS011;41245;45.384;20.390;2023-05-13T01:12:11;7.47;;;5.50;;
55364;SDS011;41245;45.384;20.390;2023-05-13T01:14:44;11.32;;;5.63;;
55364;SDS011;41245;45.384;20.390;2023-05-13T01:17:19;9.18;;;6.03;;
55364;SDS011;41245;45.384;20.390;2023-05-13T01:20:08;7.68;;;6.07;;
55364;SDS011;41245;45.384;20.390;2023-05-13T01:22:35;7.50;;;5.63;;
55364;SDS011;41245;45.384;20.390;2023-05-13T01:25:01;8.60;;;5.63;;
55364;SDS011;41245;45.384;20.390;2023-05-13T01:27:26;9.15;;;6.43;;
55364;SDS011;41245;45.384;20.390;2023-05-13T01:29:52;8.30;;;6.43;;
55364;SDS011;41245;45.384;20.390;2023-05-13T01:32:19;9.05;;;5.93;;
55364;SDS011;41245;45.384;20.390;2023-05-13T01:34:46;24.98;;;6.55;;
55364;SDS011;41245;45.384;20.390;2023-05-13T01:37:14;13.77;;;5.70;;
55364;SDS011;41245;45.384;20.390;2023-05-13T01:39:40;10.32;;;5.88;;
55364;SDS011;41245;45.384;20.390;2023-05-13T01:42:06;7.50;;;5.20;;
55364;SDS011;41245;45.384;20.390;2023-05-13T01:44:32;7.80;;;5.47;;
55364;SDS011;41245;45.384;20.390;2023-05-13T01:46:58;11.10;;;5.95;;
55364;SDS011;41245;45.384;20.390;2023-05-13T01:49:23;10.50;;;5.63;;
55364;SDS011;41245;45.384;20.390;2023-05-13T01:51:50;20.88;;;6.18;;
55364;SDS011;41245;45.384;20.390;2023-05-13T01:54:15;8.45;;;5.35;;
55364;SDS011;41245;45.384;20.390;2023-05-13T01:56:41;8.07;;;4.63;;
55364;SDS011;41245;45.384;20.390;2023-05-13T01:59:08;9.48;;;6.13;;
55364;SDS011;41245;45.384;20.390;2023-05-13T02:01:35;8.15;;;5.40;;
55364;SDS011;41245;45.384;20.390;2023-05-13T02:04:01;8.43;;;5.63;;
55364;SDS011;41245;45.384;20.390;2023-05-13T02:06:26;7.13;;;5.20;;
55364;SDS011;41245;45.384;20.390;2023-05-13T02:08:52;5.38;;;4.65;;
55364;SDS011;41245;45.384;20.390;2023-05-13T02:11:18;9.07;;;5.07;;
55364;SDS011;41245;45.384;20.390;2023-05-13T02:13:44;8.00;;;6.15;;
55364;SDS011;41245;45.384;20.390;2023-05-13T02:16:13;8.80;;;6.13;;
55364;SDS011;41245;45.384;20.390;2023-05-13T02:18:40;15.65;;;6.30;;
55364;SDS011;41245;45.384;20.390;2023-05-13T02:21:05;5.75;;;4.97;;
55364;SDS011;41245;45.384;20.390;2023-05-13T02:23:31;8.85;;;5.78;;
55364;SDS011;41245;45.384;20.390;2023-05-13T02:25:57;8.52;;;5.75;;
55364;SDS011;41245;45.384;20.390;2023-05-13T02:28:23;11.13;;;5.72;;
55364;SDS011;41245;45.384;20.390;2023-05-13T02:30:48;9.00;;;5.63;;
55364;SDS011;41245;45.384;20.390;2023-05-13T02:33:14;8.43;;;6.35;;
55364;SDS011;41245;45.384;20.390;2023-05-13T02:35:40;7.97;;;6.07;;
55364;SDS011;41245;45.384;20.390;2023-05-13T02:38:08;8.65;;;6.38;;
55364;SDS011;41245;45.384;20.390;2023-05-13T02:40:34;9.68;;;5.75;;
55364;SDS011;41245;45.384;20.390;2023-05-13T02:42:59;11.07;;;6.57;;
55364;SDS011;41245;45.384;20.390;2023-05-13T02:45:25;8.52;;;6.00;;
55364;SDS011;41245;45.384;20.390;2023-05-13T02:47:51;10.70;;;6.35;;
55364;SDS011;41245;45.384;20.390;2023-05-13T02:50:17;9.88;;;6.70;;
55364;SDS011;41245;45.384;20.390;2023-05-13T02:52:42;7.30;;;5.65;;
55364;SDS011;41245;45.384;20.390;2023-05-13T02:55:08;8.80;;;6.20;;
55364;SDS011;41245;45.384;20.390;2023-05-13T02:57:34;15.00;;;7.43;;
55364;SDS011;41245;45.384;20.390;2023-05-13T03:00:02;7.95;;;6.00;;
55364;SDS011;41245;45.384;20.390;2023-05-13T03:02:29;10.40;;;6.22;;
55364;SDS011;41245;45.384;20.390;2023-05-13T03:04:55;10.30;;;5.78;;
55364;SDS011;41245;45.384;20.390;2023-05-13T03:07:22;11.10;;;6.47;;
55364;SDS011;41245;45.384;20.390;2023-05-13T03:09:48;7.97;;;6.18;;
55364;SDS011;41245;45.384;20.390;2023-05-13T03:12:14;10.98;;;6.10;;
55364;SDS011;41245;45.384;20.390;2023-05-13T03:14:40;9.63;;;7.20;;
55364;SDS011;41245;45.384;20.390;2023-05-13T03:17:08;7.32;;;6.05;;
55364;SDS011;41245;45.384;20.390;2023-05-13T03:19:35;8.40;;;6.60;;
55364;SDS011;41245;45.384;20.390;2023-05-13T03:22:01;10.25;;;7.00;;
55364;SDS011;41245;45.384;20.390;2023-05-13T03:24:27;10.50;;;7.13;;
55364;SDS011;41245;45.384;20.390;2023-05-13T03:26:53;7.82;;;6.10;;
55364;SDS011;41245;45.384;20.390;2023-05-13T03:29:20;9.45;;;6.88;;
55364;SDS011;41245;45.384;20.390;2023-05-13T03:31:45;8.13;;;6.70;;
55364;SDS011;41245;45.384;20.390;2023-05-13T03:34:11;11.05;;;7.28;;
55364;SDS011;41245;45.384;20.390;2023-05-13T03:36:37;9.48;;;7.43;;
55364;SDS011;41245;45.384;20.390;2023-05-13T03:39:02;9.15;;;6.95;;
55364;SDS011;41245;45.384;20.390;2023-05-13T03:41:28;13.32;;;7.93;;
55364;SDS011;41245;45.384;20.390;2023-05-13T03:43:54;10.88;;;7.40;;
55364;SDS011;41245;45.384;20.390;2023-05-13T03:46:19;12.23;;;6.65;;
55364;SDS011;41245;45.384;20.390;2023-05-13T03:48:45;10.45;;;7.45;;
55364;SDS011;41245;45.384;20.390;2023-05-13T03:51:11;10.20;;;7.32;;
55364;SDS011;41245;45.384;20.390;2023-05-13T03:53:37;11.60;;;7.35;;
55364;SDS011;41245;45.384;20.390;2023-05-13T03:56:03;10.02;;;7.38;;
55364;SDS011;41245;45.384;20.390;2023-05-13T03:58:29;10.95;;;7.53;;
55364;SDS011;41245;45.384;20.390;2023-05-13T04:00:55;11.75;;;7.00;;
55364;SDS011;41245;45.384;20.390;2023-05-13T04:03:21;10.43;;;7.85;;
55364;SDS011;41245;45.384;20.390;2023-05-13T04:05:47;9.23;;;6.30;;
55364;SDS011;41245;45.384;20.390;2023-05-13T04:08:13;9.80;;;7.32;;
55364;SDS011;41245;45.384;20.390;2023-05-13T04:10:39;9.77;;;7.47;;
55364;SDS011;41245;45.384;20.390;2023-05-13T04:13:05;10.32;;;7.15;;
55364;SDS011;41245;45.384;20.390;2023-05-13T04:15:31;11.98;;;7.28;;
55364;SDS011;41245;45.384;20.390;2023-05-13T04:17:57;11.50;;;7.65;;
55364;SDS011;41245;45.384;20.390;2023-05-13T04:20:23;11.00;;;7.88;;
55364;SDS011;41245;45.384;20.390;2023-05-13T04:22:48;9.75;;;6.80;;
55364;SDS011;41245;45.384;20.390;2023-05-13T04:25:15;12.25;;;7.97;;
55364;SDS011;41245;45.384;20.390;2023-05-13T04:27:41;8.73;;;6.88;;
55364;SDS011;41245;45.384;20.390;2023-05-13T04:30:07;12.70;;;7.68;;
55364;SDS011;41245;45.384;20.390;2023-05-13T04:32:33;12.90;;;6.97;;
55364;SDS011;41245;45.384;20.390;2023-05-13T04:34:59;7.85;;;6.97;;
55364;SDS011;41245;45.384;20.390;2023-05-13T04:37:25;11.05;;;8.23;;
55364;SDS011;41245;45.384;20.390;2023-05-13T04:39:51;11.75;;;8.05;;
55364;SDS011;41245;45.384;20.390;2023-05-13T04:42:17;9.60;;;6.80;;
55364;SDS011;41245;45.384;20.390;2023-05-13T04:44:43;9.13;;;7.55;;
55364;SDS011;41245;45.384;20.390;2023-05-13T04:47:09;14.27;;;8.98;;
55364;SDS011;41245;45.384;20.390;2023-05-13T04:49:35;12.43;;;9.38;;
55364;SDS011;41245;45.384;20.390;2023-05-13T04:52:01;15.00;;;11.40;;
55364;SDS011;41245;45.384;20.390;2023-05-13T04:54:27;16.45;;;10.68;;
55364;SDS011;41245;45.384;20.390;2023-05-13T04:56:53;10.68;;;7.82;;
55364;SDS011;41245;45.384;20.390;2023-05-13T04:59:19;12.15;;;8.13;;
55364;SDS011;41245;45.384;20.390;2023-05-13T05:01:45;16.75;;;8.65;;
55364;SDS011;41245;45.384;20.390;2023-05-13T05:04:11;11.82;;;6.10;;
55364;SDS011;41245;45.384;20.390;2023-05-13T05:06:37;11.07;;;6.93;;
55364;SDS011;41245;45.384;20.390;2023-05-13T05:09:03;10.07;;;6.53;;
55364;SDS011;41245;45.384;20.390;2023-05-13T05:11:29;10.38;;;6.22;;
55364;SDS011;41245;45.384;20.390;2023-05-13T05:13:54;11.73;;;6.53;;
55364;SDS011;41245;45.384;20.390;2023-05-13T05:16:20;7.95;;;5.80;;
55364;SDS011;41245;45.384;20.390;2023-05-13T05:18:46;9.10;;;6.22;;
55364;SDS011;41245;45.384;20.390;2023-05-13T05:21:12;9.30;;;5.82;;
55364;SDS011;41245;45.384;20.390;2023-05-13T05:23:38;7.70;;;6.38;;
55364;SDS011;41245;45.384;20.390;2023-05-13T05:26:03;9.68;;;6.47;;
55364;SDS011;41245;45.384;20.390;2023-05-13T05:28:29;7.97;;;6.07;;
55364;SDS011;41245;45.384;20.390;2023-05-13T05:30:55;11.05;;;6.00;;
55364;SDS011;41245;45.384;20.390;2023-05-13T05:33:21;8.23;;;6.10;;
55364;SDS011;41245;45.384;20.390;2023-05-13T05:35:48;12.75;;;6.50;;
55364;SDS011;41245;45.384;20.390;2023-05-13T05:38:14;9.43;;;5.60;;
55364;SDS011;41245;45.384;20.390;2023-05-13T05:40:43;8.27;;;6.60;;
55364;SDS011;41245;45.384;20.390;2023-05-13T05:45:36;9.00;;;5.70;;
55364;SDS011;41245;45.384;20.390;2023-05-13T05:48:02;8.85;;;5.57;;
55364;SDS011;41245;45.384;20.390;2023-05-13T05:50:28;8.25;;;5.97;;
55364;SDS011;41245;45.384;20.390;2023-05-13T05:52:55;6.97;;;5.80;;
55364;SDS011;41245;45.384;20.390;2023-05-13T05:55:21;9.75;;;5.95;;
55364;SDS011;41245;45.384;20.390;2023-05-13T05:57:47;9.20;;;5.65;;
55364;SDS011;41245;45.384;20.390;2023-05-13T06:00:13;7.65;;;5.28;;
55364;SDS011;41245;45.384;20.390;2023-05-13T06:02:39;7.20;;;5.65;;
55364;SDS011;41245;45.384;20.390;2023-05-13T06:05:04;7.63;;;5.53;;
55364;SDS011;41245;45.384;20.390;2023-05-13T06:07:31;11.07;;;6.22;;
55364;SDS011;41245;45.384;20.390;2023-05-13T06:09:56;12.30;;;5.40;;
55364;SDS011;41245;45.384;20.390;2023-05-13T06:12:22;11.60;;;5.40;;
55364;SDS011;41245;45.384;20.390;2023-05-13T06:14:48;8.75;;;5.15;;
55364;SDS011;41245;45.384;20.390;2023-05-13T06:17:14;10.93;;;5.40;;
55364;SDS011;41245;45.384;20.390;2023-05-13T06:19:40;9.45;;;5.40;;
55364;SDS011;41245;45.384;20.390;2023-05-13T06:22:11;11.00;;;5.47;;
55364;SDS011;41245;45.384;20.390;2023-05-13T06:24:37;7.63;;;5.63;;
55364;SDS011;41245;45.384;20.390;2023-05-13T06:27:03;7.53;;;5.32;;
55364;SDS011;41245;45.384;20.390;2023-05-13T06:29:29;10.88;;;5.65;;
55364;SDS011;41245;45.384;20.390;2023-05-13T06:31:55;9.48;;;4.88;;
55364;SDS011;41245;45.384;20.390;2023-05-13T06:34:21;10.68;;;5.43;;
55364;SDS011;41245;45.384;20.390;2023-05-13T06:36:47;11.48;;;5.50;;
55364;SDS011;41245;45.384;20.390;2023-05-13T06:39:12;11.38;;;6.03;;
55364;SDS011;41245;45.384;20.390;2023-05-13T06:41:39;12.60;;;5.47;;
55364;SDS011;41245;45.384;20.390;2023-05-13T06:44:05;9.15;;;5.53;;
55364;SDS011;41245;45.384;20.390;2023-05-13T06:46:31;7.50;;;5.00;;
55364;SDS011;41245;45.384;20.390;2023-05-13T06:48:57;10.38;;;5.25;;
55364;SDS011;41245;45.384;20.390;2023-05-13T06:51:23;12.18;;;4.95;;
55364;SDS011;41245;45.384;20.390;2023-05-13T06:53:51;15.32;;;5.40;;
55364;SDS011;41245;45.384;20.390;2023-05-13T06:56:17;7.47;;;5.38;;
55364;SDS011;41245;45.384;20.390;2023-05-13T06:58:43;7.88;;;4.50;;
55364;SDS011;41245;45.384;20.390;2023-05-13T07:01:09;8.27;;;5.35;;
55364;SDS011;41245;45.384;20.390;2023-05-13T07:03:36;16.63;;;6.53;;
55364;SDS011;41245;45.384;20.390;2023-05-13T07:06:02;9.45;;;5.75;;
55364;SDS011;41245;45.384;20.390;2023-05-13T07:08:28;7.25;;;4.72;;
55364;SDS011;41245;45.384;20.390;2023-05-13T07:10:54;8.32;;;5.32;;
55364;SDS011;41245;45.384;20.390;2023-05-13T07:13:20;8.43;;;5.45;;
55364;SDS011;41245;45.384;20.390;2023-05-13T07:15:46;7.82;;;4.95;;
55364;SDS011;41245;45.384;20.390;2023-05-13T07:18:12;5.72;;;4.72;;
55364;SDS011;41245;45.384;20.390;2023-05-13T07:20:38;9.02;;;5.75;;
55364;SDS011;41245;45.384;20.390;2023-05-13T07:23:04;7.55;;;5.57;;
55364;SDS011;41245;45.384;20.390;2023-05-13T07:25:29;11.25;;;5.20;;
55364;SDS011;41245;45.384;20.390;2023-05-13T07:27:55;12.93;;;5.57;;
55364;SDS011;41245;45.384;20.390;2023-05-13T07:30:22;7.60;;;4.85;;
55364;SDS011;41245;45.384;20.390;2023-05-13T07:32:48;9.20;;;5.32;;
55364;SDS011;41245;45.384;20.390;2023-05-13T07:35:13;5.90;;;4.13;;
55364;SDS011;41245;45.384;20.390;2023-05-13T07:37:40;8.13;;;4.38;;
55364;SDS011;41245;45.384;20.390;2023-05-13T07:40:06;8.25;;;4.50;;
55364;SDS011;41245;45.384;20.390;2023-05-13T07:42:33;5.53;;;3.92;;
55364;SDS011;41245;45.384;20.390;2023-05-13T07:44:59;12.20;;;4.75;;
55364;SDS011;41245;45.384;20.390;2023-05-13T07:47:24;7.43;;;3.75;;
55364;SDS011;41245;45.384;20.390;2023-05-13T07:49:52;7.13;;;4.85;;
55364;SDS011;41245;45.384;20.390;2023-05-13T07:52:19;7.07;;;4.47;;
55364;SDS011;41245;45.384;20.390;2023-05-13T07:54:44;8.90;;;4.30;;
55364;SDS011;41245;45.384;20.390;2023-05-13T07:57:10;8.23;;;4.88;;
55364;SDS011;41245;45.384;20.390;2023-05-13T07:59:36;6.82;;;4.93;;
55364;SDS011;41245;45.384;20.390;2023-05-13T08:02:01;7.82;;;5.18;;
55364;SDS011;41245;45.384;20.390;2023-05-13T08:04:27;8.65;;;4.95;;
55364;SDS011;41245;45.384;20.390;2023-05-13T08:06:53;5.85;;;4.30;;
55364;SDS011;41245;45.384;20.390;2023-05-13T08:09:18;10.20;;;5.78;;
55364;SDS011;41245;45.384;20.390;2023-05-13T08:11:44;6.32;;;4.78;;
55364;SDS011;41245;45.384;20.390;2023-05-13T08:14:10;11.63;;;4.55;;
55364;SDS011;41245;45.384;20.390;2023-05-13T08:16:35;6.07;;;4.28;;
55364;SDS011;41245;45.384;20.390;2023-05-13T08:19:02;10.35;;;4.95;;
55364;SDS011;41245;45.384;20.390;2023-05-13T08:21:27;7.43;;;4.57;;
55364;SDS011;41245;45.384;20.390;2023-05-13T08:23:53;5.80;;;4.35;;
55364;SDS011;41245;45.384;20.390;2023-05-13T08:26:19;10.32;;;4.75;;
55364;SDS011;41245;45.384;20.390;2023-05-13T08:28:45;12.05;;;4.80;;
55364;SDS011;41245;45.384;20.390;2023-05-13T08:31:11;8.07;;;4.20;;
55364;SDS011;41245;45.384;20.390;2023-05-13T08:33:37;7.60;;;4.43;;
55364;SDS011;41245;45.384;20.390;2023-05-13T08:36:05;7.65;;;4.22;;
55364;SDS011;41245;45.384;20.390;2023-05-13T08:38:31;7.13;;;3.70;;
55364;SDS011;41245;45.384;20.390;2023-05-13T08:40:58;7.85;;;4.22;;
55364;SDS011;41245;45.384;20.390;2023-05-13T08:43:27;5.70;;;4.47;;
55364;SDS011;41245;45.384;20.390;2023-05-13T08:45:55;5.28;;;3.80;;
55364;SDS011;41245;45.384;20.390;2023-05-13T08:48:24;7.68;;;3.50;;
55364;SDS011;41245;45.384;20.390;2023-05-13T08:50:50;6.97;;;4.03;;
55364;SDS011;41245;45.384;20.390;2023-05-13T08:53:16;5.97;;;3.25;;
55364;SDS011;41245;45.384;20.390;2023-05-13T08:55:45;7.13;;;3.42;;
55364;SDS011;41245;45.384;20.390;2023-05-13T08:58:11;5.20;;;3.58;;
55364;SDS011;41245;45.384;20.390;2023-05-13T09:00:37;5.20;;;4.13;;
55364;SDS011;41245;45.384;20.390;2023-05-13T09:03:04;7.30;;;3.92;;
55364;SDS011;41245;45.384;20.390;2023-05-13T09:05:31;8.20;;;4.88;;
55364;SDS011;41245;45.384;20.390;2023-05-13T09:07:57;8.07;;;4.75;;
55364;SDS011;41245;45.384;20.390;2023-05-13T09:10:23;9.43;;;3.67;;
55364;SDS011;41245;45.384;20.390;2023-05-13T09:12:52;9.45;;;3.55;;
55364;SDS011;41245;45.384;20.390;2023-05-13T09:15:20;6.50;;;3.60;;
55364;SDS011;41245;45.384;20.390;2023-05-13T09:17:53;10.10;;;4.93;;
55364;SDS011;41245;45.384;20.390;2023-05-13T09:20:24;7.72;;;3.88;;
55364;SDS011;41245;45.384;20.390;2023-05-13T09:23:12;7.10;;;3.58;;
55364;SDS011;41245;45.384;20.390;2023-05-13T09:25:37;4.40;;;3.13;;
55364;SDS011;41245;45.384;20.390;2023-05-13T09:28:04;6.68;;;3.58;;
55364;SDS011;41245;45.384;20.390;2023-05-13T09:30:37;7.38;;;3.50;;
55364;SDS011;41245;45.384;20.390;2023-05-13T09:35:49;4.85;;;3.28;;
55364;SDS011;41245;45.384;20.390;2023-05-13T09:40:56;8.60;;;4.03;;
55364;SDS011;41245;45.384;20.390;2023-05-13T09:43:27;6.65;;;3.63;;
55364;SDS011;41245;45.384;20.390;2023-05-13T09:45:56;8.82;;;3.50;;
55364;SDS011;41245;45.384;20.390;2023-05-13T09:48:27;13.65;;;5.28;;
55364;SDS011;41245;45.384;20.390;2023-05-13T09:50:54;7.28;;;3.53;;
55364;SDS011;41245;45.384;20.390;2023-05-13T09:53:22;5.75;;;3.75;;
55364;SDS011;41245;45.384;20.390;2023-05-13T09:55:49;10.07;;;3.38;;
55364;SDS011;41245;45.384;20.390;2023-05-13T09:58:16;3.72;;;3.20;;
55364;SDS011;41245;45.384;20.390;2023-05-13T10:00:44;4.95;;;3.30;;
55364;SDS011;41245;45.384;20.390;2023-05-13T10:03:11;5.35;;;4.10;;
55364;SDS011;41245;45.384;20.390;2023-05-13T10:05:38;4.47;;;2.55;;
55364;SDS011;41245;45.384;20.390;2023-05-13T10:08:04;2.63;;;2.40;;
55364;SDS011;41245;45.384;20.390;2023-05-13T10:10:36;6.72;;;3.10;;
55364;SDS011;41245;45.384;20.390;2023-05-13T10:13:04;4.55;;;2.70;;
55364;SDS011;41245;45.384;20.390;2023-05-13T10:15:34;4.43;;;2.30;;
55364;SDS011;41245;45.384;20.390;2023-05-13T10:18:06;8.55;;;2.92;;
55364;SDS011;41245;45.384;20.390;2023-05-13T10:20:32;4.22;;;3.05;;
55364;SDS011;41245;45.384;20.390;2023-05-13T10:22:58;5.72;;;2.50;;
55364;SDS011;41245;45.384;20.390;2023-05-13T10:25:24;6.93;;;2.75;;
55364;SDS011;41245;45.384;20.390;2023-05-13T10:27:51;4.90;;;2.47;;
55364;SDS011;41245;45.384;20.390;2023-05-13T10:30:19;3.80;;;2.53;;
55364;SDS011;41245;45.384;20.390;2023-05-13T10:32:50;3.65;;;2.10;;
55364;SDS011;41245;45.384;20.390;2023-05-13T10:35:16;9.30;;;2.70;;
55364;SDS011;41245;45.384;20.390;2023-05-13T10:43:22;4.80;;;3.47;;
55364;SDS011;41245;45.384;20.390;2023-05-13T10:45:59;4.55;;;2.05;;
55364;SDS011;41245;45.384;20.390;2023-05-13T10:48:36;4.50;;;1.75;;
55364;SDS011;41245;45.384;20.390;2023-05-13T10:51:07;4.63;;;2.33;;
55364;SDS011;41245;45.384;20.390;2023-05-13T10:56:13;4.77;;;2.77;;
55364;SDS011;41245;45.384;20.390;2023-05-13T10:58:39;3.45;;;2.45;;
55364;SDS011;41245;45.384;20.390;2023-05-13T11:03:53;2.95;;;1.73;;
55364;SDS011;41245;45.384;20.390;2023-05-13T11:06:28;3.10;;;2.22;;
55364;SDS011;41245;45.384;20.390;2023-05-13T11:08:57;6.18;;;3.17;;
55364;SDS011;41245;45.384;20.390;2023-05-13T11:11:24;3.88;;;1.80;;
55364;SDS011;41245;45.384;20.390;2023-05-13T11:14:08;3.58;;;2.42;;
55364;SDS011;41245;45.384;20.390;2023-05-13T11:16:41;5.10;;;2.03;;
55364;SDS011;41245;45.384;20.390;2023-05-13T11:19:17;8.68;;;2.90;;
55364;SDS011;41245;45.384;20.390;2023-05-13T11:21:46;6.68;;;2.63;;
55364;SDS011;41245;45.384;20.390;2023-05-13T11:24:16;5.05;;;3.53;;
55364;SDS011;41245;45.384;20.390;2023-05-13T11:26:53;3.85;;;2.67;;
55364;SDS011;41245;45.384;20.390;2023-05-13T11:29:28;5.47;;;2.50;;
55364;SDS011;41245;45.384;20.390;2023-05-13T11:31:54;6.53;;;2.55;;
55364;SDS011;41245;45.384;20.390;2023-05-13T11:34:22;4.78;;;2.75;;
55364;SDS011;41245;45.384;20.390;2023-05-13T11:36:49;5.40;;;2.67;;
55364;SDS011;41245;45.384;20.390;2023-05-13T11:39:21;5.30;;;2.55;;
55364;SDS011;41245;45.384;20.390;2023-05-13T11:41:51;8.73;;;3.83;;
55364;SDS011;41245;45.384;20.390;2023-05-13T11:44:19;3.90;;;2.80;;
55364;SDS011;41245;45.384;20.390;2023-05-13T11:49:30;4.82;;;2.60;;
55364;SDS011;41245;45.384;20.390;2023-05-13T11:52:03;9.65;;;3.17;;
55364;SDS011;41245;45.384;20.390;2023-05-13T11:54:31;5.63;;;2.85;;
55364;SDS011;41245;45.384;20.390;2023-05-13T11:56:57;6.03;;;2.53;;
55364;SDS011;41245;45.384;20.390;2023-05-13T11:59:23;5.82;;;3.65;;
55364;SDS011;41245;45.384;20.390;2023-05-13T12:01:59;7.28;;;2.78;;
55364;SDS011;41245;45.384;20.390;2023-05-13T12:04:31;7.65;;;2.28;;
55364;SDS011;41245;45.384;20.390;2023-05-13T12:06:57;4.15;;;3.00;;
55364;SDS011;41245;45.384;20.390;2023-05-13T12:09:23;9.00;;;2.80;;
55364;SDS011;41245;45.384;20.390;2023-05-13T12:11:49;4.78;;;2.83;;
55364;SDS011;41245;45.384;20.390;2023-05-13T12:14:17;6.22;;;2.70;;
55364;SDS011;41245;45.384;20.390;2023-05-13T12:16:46;6.47;;;3.10;;
55364;SDS011;41245;45.384;20.390;2023-05-13T12:19:12;4.07;;;2.67;;
55364;SDS011;41245;45.384;20.390;2023-05-13T12:21:38;5.22;;;3.03;;
55364;SDS011;41245;45.384;20.390;2023-05-13T12:24:19;3.47;;;2.90;;
55364;SDS011;41245;45.384;20.390;2023-05-13T12:26:46;7.55;;;3.58;;
55364;SDS011;41245;45.384;20.390;2023-05-13T12:29:13;5.82;;;3.10;;
55364;SDS011;41245;45.384;20.390;2023-05-13T12:31:42;8.25;;;2.80;;
55364;SDS011;41245;45.384;20.390;2023-05-13T12:34:30;6.32;;;2.95;;
55364;SDS011;41245;45.384;20.390;2023-05-13T12:37:07;9.32;;;3.03;;
55364;SDS011;41245;45.384;20.390;2023-05-13T12:39:37;6.72;;;2.40;;
55364;SDS011;41245;45.384;20.390;2023-05-13T12:42:03;7.13;;;2.90;;
55364;SDS011;41245;45.384;20.390;2023-05-13T12:44:29;7.70;;;2.60;;
55364;SDS011;41245;45.384;20.390;2023-05-13T12:46:56;4.30;;;2.90;;
55364;SDS011;41245;45.384;20.390;2023-05-13T12:49:22;10.90;;;2.88;;
55364;SDS011;41245;45.384;20.390;2023-05-13T12:51:48;4.00;;;2.60;;
55364;SDS011;41245;45.384;20.390;2023-05-13T12:54:15;6.88;;;2.28;;
55364;SDS011;41245;45.384;20.390;2023-05-13T12:56:41;7.40;;;2.90;;
55364;SDS011;41245;45.384;20.390;2023-05-13T12:59:07;4.70;;;2.60;;
55364;SDS011;41245;45.384;20.390;2023-05-13T13:01:34;3.97;;;2.78;;
55364;SDS011;41245;45.384;20.390;2023-05-13T13:04:00;4.25;;;2.55;;
55364;SDS011;41245;45.384;20.390;2023-05-13T13:06:26;6.43;;;2.95;;
55364;SDS011;41245;45.384;20.390;2023-05-13T13:08:52;5.70;;;3.60;;
55364;SDS011;41245;45.384;20.390;2023-05-13T13:11:18;6.10;;;3.00;;
55364;SDS011;41245;45.384;20.390;2023-05-13T13:13:46;4.40;;;2.45;;
55364;SDS011;41245;45.384;20.390;2023-05-13T13:16:12;7.65;;;2.38;;
55364;SDS011;41245;45.384;20.390;2023-05-13T13:18:38;4.43;;;2.72;;
55364;SDS011;41245;45.384;20.390;2023-05-13T13:21:04;5.78;;;2.50;;
55364;SDS011;41245;45.384;20.390;2023-05-13T13:23:31;6.30;;;3.08;;
55364;SDS011;41245;45.384;20.390;2023-05-13T13:25:58;4.25;;;3.28;;
55364;SDS011;41245;45.384;20.390;2023-05-13T13:28:24;5.85;;;2.25;;
55364;SDS011;41245;45.384;20.390;2023-05-13T13:30:50;12.55;;;3.08;;
55364;SDS011;41245;45.384;20.390;2023-05-13T13:33:17;6.40;;;2.95;;
55364;SDS011;41245;45.384;20.390;2023-05-13T13:35:44;4.22;;;2.95;;
55364;SDS011;41245;45.384;20.390;2023-05-13T13:38:11;12.05;;;4.45;;
55364;SDS011;41245;45.384;20.390;2023-05-13T13:40:37;4.55;;;2.60;;
55364;SDS011;41245;45.384;20.390;2023-05-13T13:43:06;7.30;;;3.20;;
55364;SDS011;41245;45.384;20.390;2023-05-13T13:45:32;10.35;;;3.05;;
55364;SDS011;41245;45.384;20.390;2023-05-13T13:47:59;6.20;;;2.30;;
55364;SDS011;41245;45.384;20.390;2023-05-13T13:50:25;6.22;;;2.35;;
55364;SDS011;41245;45.384;20.390;2023-05-13T13:52:51;4.28;;;1.80;;
55364;SDS011;41245;45.384;20.390;2023-05-13T13:55:20;4.35;;;2.25;;
55364;SDS011;41245;45.384;20.390;2023-05-13T13:57:46;6.63;;;2.50;;
55364;SDS011;41245;45.384;20.390;2023-05-13T14:00:12;6.28;;;2.10;;
55364;SDS011;41245;45.384;20.390;2023-05-13T14:02:39;7.55;;;4.15;;
55364;SDS011;41245;45.384;20.390;2023-05-13T14:05:06;10.52;;;3.60;;
55364;SDS011;41245;45.384;20.390;2023-05-13T14:07:32;5.00;;;3.15;;
55364;SDS011;41245;45.384;20.390;2023-05-13T14:09:58;7.13;;;3.40;;
55364;SDS011;41245;45.384;20.390;2023-05-13T14:12:23;5.82;;;2.97;;
55364;SDS011;41245;45.384;20.390;2023-05-13T14:14:49;5.93;;;2.92;;
55364;SDS011;41245;45.384;20.390;2023-05-13T14:17:15;7.90;;;2.30;;
55364;SDS011;41245;45.384;20.390;2023-05-13T14:19:40;4.60;;;2.00;;
55364;SDS011;41245;45.384;20.390;2023-05-13T14:22:06;7.93;;;2.38;;
55364;SDS011;41245;45.384;20.390;2023-05-13T14:24:32;2.85;;;2.03;;
55364;SDS011;41245;45.384;20.390;2023-05-13T14:26:57;6.88;;;2.95;;
55364;SDS011;41245;45.384;20.390;2023-05-13T14:29:24;4.85;;;2.67;;
55364;SDS011;41245;45.384;20.390;2023-05-13T14:31:51;5.07;;;2.22;;
55364;SDS011;41245;45.384;20.390;2023-05-13T14:34:16;4.60;;;2.58;;
55364;SDS011;41245;45.384;20.390;2023-05-13T14:36:42;3.90;;;2.58;;
55364;SDS011;41245;45.384;20.390;2023-05-13T14:39:08;4.38;;;2.03;;
55364;SDS011;41245;45.384;20.390;2023-05-13T14:41:35;2.97;;;2.58;;
55364;SDS011;41245;45.384;20.390;2023-05-13T14:44:01;4.72;;;2.30;;
55364;SDS011;41245;45.384;20.390;2023-05-13T14:46:26;8.85;;;3.17;;
55364;SDS011;41245;45.384;20.390;2023-05-13T14:48:52;6.60;;;3.42;;
55364;SDS011;41245;45.384;20.390;2023-05-13T14:51:18;7.43;;;2.70;;
55364;SDS011;41245;45.384;20.390;2023-05-13T14:53:43;6.47;;;2.58;;
55364;SDS011;41245;45.384;20.390;2023-05-13T14:56:09;13.70;;;3.60;;